createdAt,value
2023-01-03T00:00:45.053Z,6.61
2023-01-03T00:03:49.613Z,6.61
2023-01-03T00:06:54.746Z,6.61
2023-01-03T00:09:59.297Z,6.60
2023-01-03T00:13:03.799Z,6.57
2023-01-03T00:16:16.021Z,6.54
2023-01-03T00:19:20.681Z,6.49
2023-01-03T00:22:25.431Z,6.45
2023-01-03T00:25:30.110Z,6.43
2023-01-03T00:28:34.724Z,6.42
2023-01-03T00:31:39.870Z,6.43
2023-01-03T00:34:45.016Z,6.44
2023-01-03T00:37:49.619Z,6.46
2023-01-03T00:40:54.204Z,6.47
2023-01-03T00:43:58.746Z,6.49
2023-01-03T00:47:03.721Z,6.49
2023-01-03T00:50:08.592Z,6.50
2023-01-03T00:53:13.079Z,6.51
2023-01-03T00:56:18.527Z,6.51
2023-01-03T00:59:23.170Z,6.49
2023-01-03T01:02:27.903Z,6.47
2023-01-03T01:05:32.460Z,6.46
2023-01-03T01:08:37.018Z,6.49
2023-01-03T01:11:41.736Z,6.52
2023-01-03T01:14:46.281Z,6.54
2023-01-03T01:17:50.785Z,6.53
2023-01-03T01:20:55.420Z,6.53
2023-01-03T01:24:00.733Z,6.54
2023-01-03T01:27:05.526Z,6.54
2023-01-03T01:30:10.743Z,6.53
2023-01-03T01:33:15.289Z,6.53
2023-01-03T01:36:21.077Z,6.53
2023-01-03T01:39:26.434Z,6.52
2023-01-03T01:42:48.299Z,6.51
2023-01-03T01:45:53.157Z,6.49
2023-01-03T01:48:58.572Z,6.47
2023-01-03T01:52:04.174Z,6.47
2023-01-03T01:55:13.175Z,6.44
2023-01-03T01:58:17.976Z,6.39
2023-01-03T02:01:23.946Z,6.32
2023-01-03T02:04:30.612Z,6.27
2023-01-03T02:07:35.916Z,6.28
2023-01-03T02:10:51.989Z,6.28
2023-01-03T02:14:04.020Z,6.26
2023-01-03T02:17:11.952Z,6.25
2023-01-03T02:20:22.289Z,6.24
2023-01-03T02:23:46.000Z,6.19
2023-01-03T02:26:54.699Z,6.12
2023-01-03T02:30:19.022Z,6.06
2023-01-03T02:33:29.801Z,6.02
2023-01-03T02:36:38.743Z,6.01
2023-01-03T02:39:47.667Z,6.02
2023-01-03T02:43:01.264Z,6.02
2023-01-03T02:46:08.700Z,6.02
2023-01-03T02:49:14.809Z,6.00
2023-01-03T02:52:20.949Z,6.00
2023-01-03T02:55:27.421Z,6.00
2023-01-03T02:58:32.871Z,5.98
2023-01-03T03:01:38.299Z,5.97
2023-01-03T03:04:44.257Z,5.98
2023-01-03T03:07:48.787Z,5.98
2023-01-03T03:11:11.943Z,5.96
2023-01-03T03:14:19.792Z,5.95
2023-01-03T03:17:29.508Z,5.96
2023-01-03T03:20:51.201Z,5.96
2023-01-03T03:24:15.292Z,5.96
2023-01-03T03:27:40.535Z,5.93
2023-01-03T03:30:46.082Z,5.93
2023-01-03T03:33:52.918Z,5.94
2023-01-03T03:37:00.604Z,5.94
2023-01-03T03:40:23.688Z,5.97
2023-01-03T03:43:48.283Z,5.99
2023-01-03T03:46:57.111Z,6.03
2023-01-03T03:50:03.277Z,6.07
2023-01-03T03:53:09.447Z,6.09
2023-01-03T03:56:16.615Z,6.13
2023-01-03T03:59:22.501Z,6.16
2023-01-03T04:02:27.599Z,6.15
2023-01-03T04:05:34.140Z,6.15
2023-01-03T04:08:38.691Z,6.17
2023-01-03T04:11:43.445Z,6.20
2023-01-03T04:14:47.984Z,6.20
2023-01-03T04:17:52.517Z,6.17
2023-01-03T04:20:57.522Z,6.15
2023-01-03T04:24:02.086Z,6.13
2023-01-03T04:27:06.556Z,6.19
2023-01-03T04:30:12.611Z,6.29
2023-01-03T04:33:17.405Z,6.47
2023-01-03T04:36:22.012Z,6.71
2023-01-03T04:39:26.539Z,7.01
2023-01-03T04:42:48.772Z,7.37
2023-01-03T04:45:53.441Z,7.83
2023-01-03T04:48:57.955Z,8.22
2023-01-03T04:52:02.417Z,8.59
2023-01-03T04:55:07.600Z,8.91
2023-01-03T04:58:12.071Z,9.23
2023-01-03T05:01:16.630Z,9.50
2023-01-03T05:04:21.182Z,9.73
2023-01-03T05:07:25.686Z,9.94
2023-01-03T05:10:30.319Z,10.14
2023-01-03T05:13:35.292Z,10.33
2023-01-03T05:16:39.919Z,10.52
2023-01-03T05:19:58.247Z,10.68
2023-01-03T05:23:20.371Z,10.83
2023-01-03T05:26:24.908Z,10.97
2023-01-03T05:29:30.447Z,11.09
2023-01-03T05:32:35.111Z,11.19
2023-01-03T05:35:39.608Z,11.30
2023-01-03T05:38:44.119Z,11.38
2023-01-03T05:42:00.843Z,11.44
2023-01-03T05:45:05.653Z,11.53
2023-01-03T05:48:10.732Z,11.62
2023-01-03T05:51:15.239Z,11.69
2023-01-03T05:54:21.315Z,11.74
2023-01-03T05:57:30.535Z,11.79
2023-01-03T06:00:39.540Z,11.85
2023-01-03T06:03:46.422Z,11.91
2023-01-03T06:06:51.066Z,11.96
2023-01-03T06:09:55.543Z,12.01
2023-01-03T06:13:00.012Z,12.06
2023-01-03T06:16:26.758Z,12.09
2023-01-03T06:19:31.249Z,12.12
2023-01-03T06:22:36.218Z,12.14
2023-01-03T06:25:40.723Z,12.15
2023-01-03T06:28:45.532Z,12.17
2023-01-03T06:31:50.039Z,12.19
2023-01-03T06:34:54.491Z,12.21
2023-01-03T06:37:58.976Z,12.21
2023-01-03T06:41:03.888Z,12.22
2023-01-03T06:44:08.372Z,12.23
2023-01-03T06:47:30.346Z,12.25
2023-01-03T06:50:51.945Z,12.25
2023-01-03T06:53:56.493Z,12.27
2023-01-03T06:57:01.361Z,12.27
2023-01-03T07:00:06.797Z,12.28
2023-01-03T07:03:11.897Z,12.29
2023-01-03T07:06:16.646Z,12.31
2023-01-03T07:09:21.154Z,12.29
2023-01-03T07:12:43.207Z,12.27
2023-01-03T07:15:48.103Z,12.28
2023-01-03T07:18:55.338Z,12.29
2023-01-03T07:22:00.228Z,12.28
2023-01-03T07:25:04.727Z,12.29
2023-01-03T07:28:11.065Z,12.28
2023-01-03T07:31:15.923Z,12.29
2023-01-03T07:34:20.640Z,12.29
2023-01-03T07:37:25.216Z,12.29
2023-01-03T07:40:30.154Z,12.28
2023-01-03T07:43:40.563Z,12.31
2023-01-03T07:46:45.275Z,12.32
2023-01-03T07:49:49.882Z,12.31
2023-01-03T07:52:54.533Z,12.32
2023-01-03T07:56:09.126Z,12.35
2023-01-03T07:59:17.276Z,12.38
2023-01-03T08:02:21.953Z,12.43
2023-01-03T08:05:27.159Z,12.48
2023-01-03T08:08:31.720Z,12.54
2023-01-03T08:11:53.952Z,12.59
2023-01-03T08:14:58.562Z,12.65
2023-01-03T08:18:03.921Z,12.69
2023-01-03T08:21:08.963Z,12.74
2023-01-03T08:24:13.531Z,12.74
2023-01-03T08:27:18.020Z,12.76
2023-01-03T08:30:22.694Z,12.78
2023-01-03T08:33:28.048Z,12.80
2023-01-03T08:36:34.855Z,12.82
2023-01-03T08:39:42.781Z,12.85
2023-01-03T08:42:47.944Z,12.90
2023-01-03T08:45:52.437Z,12.94
2023-01-03T08:48:57.513Z,12.98
2023-01-03T08:52:01.977Z,13.01
2023-01-03T08:55:08.323Z,13.03
2023-01-03T08:58:12.979Z,13.06
2023-01-03T09:01:17.802Z,13.10
2023-01-03T09:04:22.585Z,13.12
2023-01-03T09:07:27.092Z,13.14
2023-01-03T09:10:31.713Z,13.14
2023-01-03T09:13:36.703Z,13.14
2023-01-03T09:16:47.007Z,13.16
2023-01-03T09:19:53.501Z,13.12
2023-01-03T09:22:58.022Z,13.11
2023-01-03T09:26:02.782Z,13.05
2023-01-03T09:29:07.327Z,13.00
2023-01-03T09:32:11.938Z,12.95
2023-01-03T09:35:16.710Z,12.94
2023-01-03T09:38:21.447Z,12.92
2023-01-03T09:41:26.967Z,12.92
2023-01-03T09:44:31.495Z,12.93
2023-01-03T09:47:37.375Z,12.94
2023-01-03T09:51:15.787Z,12.96
2023-01-03T09:54:29.325Z,12.99
2023-01-03T09:57:53.230Z,12.98
2023-01-03T10:01:19.118Z,13.01
2023-01-03T10:04:36.012Z,13.04
2023-01-03T10:07:49.650Z,13.08
2023-01-03T10:11:02.123Z,13.14
2023-01-03T10:14:13.071Z,13.20
2023-01-03T10:17:22.049Z,13.26
2023-01-03T10:20:33.433Z,13.31
2023-01-03T10:23:38.830Z,13.35
2023-01-03T10:26:43.462Z,13.40
2023-01-03T10:29:49.262Z,13.45
2023-01-03T10:33:10.227Z,13.49
2023-01-03T10:36:15.422Z,13.49
2023-01-03T10:39:29.869Z,13.50
2023-01-03T10:42:35.293Z,13.48
2023-01-03T10:45:51.353Z,13.47
2023-01-03T10:49:26.520Z,13.48
2023-01-03T10:52:23.993Z,13.53
2023-01-03T10:55:28.836Z,13.57
2023-01-03T10:58:36.526Z,13.63
2023-01-03T11:01:41.509Z,13.65
2023-01-03T11:04:46.186Z,13.38
2023-01-03T11:07:54.733Z,12.80
2023-01-03T11:10:59.976Z,12.33
2023-01-03T11:14:11.940Z,12.01
2023-01-03T11:17:17.648Z,11.76
2023-01-03T11:20:22.738Z,11.72
2023-01-03T11:23:32.468Z,12.11
2023-01-03T11:26:43.157Z,12.48
2023-01-03T11:30:08.994Z,12.74
2023-01-03T11:33:29.048Z,12.92
2023-01-03T11:36:42.244Z,13.08
2023-01-03T11:39:55.657Z,13.23
2023-01-03T11:43:05.378Z,13.38
2023-01-03T11:46:18.993Z,13.49
2023-01-03T11:49:28.580Z,13.62
2023-01-03T11:52:37.371Z,13.74
2023-01-03T11:55:52.672Z,13.52
2023-01-03T11:59:11.405Z,12.98
2023-01-03T12:02:41.690Z,12.56
2023-01-03T12:05:57.161Z,12.22
2023-01-03T12:09:11.637Z,11.97
2023-01-03T12:12:38.957Z,11.75
2023-01-03T12:15:46.602Z,11.56
2023-01-03T12:18:54.423Z,11.41
2023-01-03T12:22:04.072Z,11.29
2023-01-03T12:25:15.453Z,11.17
2023-01-03T12:28:22.601Z,11.29
2023-01-03T12:31:32.229Z,11.81
2023-01-03T12:34:41.124Z,12.23
2023-01-03T12:37:47.060Z,12.53
2023-01-03T12:40:53.941Z,12.75
2023-01-03T12:44:00.855Z,12.94
2023-01-03T12:47:07.130Z,13.09
2023-01-03T12:50:17.691Z,13.19
2023-01-03T12:53:26.891Z,12.88
2023-01-03T12:56:48.509Z,12.39
2023-01-03T12:59:59.292Z,12.01
2023-01-03T13:03:09.132Z,11.74
2023-01-03T13:06:17.569Z,11.53
2023-01-03T13:09:24.343Z,11.34
2023-01-03T13:12:30.468Z,11.18
2023-01-03T13:15:37.481Z,11.03
2023-01-03T13:18:42.215Z,10.90
2023-01-03T13:22:02.989Z,10.77
2023-01-03T13:25:20.884Z,10.64
2023-01-03T13:28:37.611Z,10.55
2023-01-03T13:31:42.434Z,10.45
2023-01-03T13:35:06.929Z,10.36
2023-01-03T13:38:24.845Z,10.28
2023-01-03T13:41:34.161Z,10.51
2023-01-03T13:44:39.751Z,11.05
2023-01-03T13:47:45.559Z,11.46
2023-01-03T13:51:15.835Z,11.77
2023-01-03T13:54:36.152Z,12.03
2023-01-03T13:57:53.638Z,12.23
2023-01-03T14:01:05.566Z,12.38
2023-01-03T14:04:35.888Z,12.34
2023-01-03T14:07:56.599Z,11.80
2023-01-03T14:11:12.918Z,11.38
2023-01-03T14:14:19.176Z,11.09
2023-01-03T14:17:26.715Z,10.87
2023-01-03T14:20:33.519Z,10.67
2023-01-03T14:24:07.956Z,10.51
2023-01-03T14:27:11.503Z,10.33
2023-01-03T14:30:24.230Z,10.17
2023-01-03T14:33:32.867Z,10.03
2023-01-03T14:36:45.642Z,9.88
2023-01-03T14:39:56.299Z,9.76
2023-01-03T14:43:04.489Z,9.65
2023-01-03T14:46:09.896Z,9.55
2023-01-03T14:49:20.759Z,9.67
2023-01-03T14:52:29.825Z,10.22
2023-01-03T14:55:34.977Z,10.67
2023-01-03T14:58:40.513Z,10.98
2023-01-03T15:01:46.044Z,11.24
2023-01-03T15:04:53.582Z,11.45
2023-01-03T15:08:08.289Z,11.64
2023-01-03T15:11:14.283Z,11.81
2023-01-03T15:14:19.130Z,11.96
2023-01-03T15:17:27.228Z,12.11
2023-01-03T15:20:35.410Z,12.22
2023-01-03T15:23:41.251Z,12.32
2023-01-03T15:26:47.180Z,12.39
2023-01-03T15:29:51.606Z,12.35
2023-01-03T15:32:57.980Z,11.87
2023-01-03T15:36:04.313Z,11.39
2023-01-03T15:39:15.912Z,11.02
2023-01-03T15:42:50.250Z,10.72
2023-01-03T15:46:02.966Z,10.45
2023-01-03T15:49:08.033Z,10.23
2023-01-03T15:52:14.560Z,10.05
2023-01-03T15:55:19.239Z,9.87
2023-01-03T15:58:25.201Z,9.72
2023-01-03T16:01:29.815Z,9.70
2023-01-03T16:04:34.520Z,10.15
2023-01-03T16:07:40.342Z,10.56
2023-01-03T16:10:44.883Z,10.87
2023-01-03T16:13:51.382Z,11.07
2023-01-03T16:16:57.050Z,11.25
2023-01-03T16:20:01.871Z,11.40
2023-01-03T16:23:06.548Z,11.54
2023-01-03T16:26:11.025Z,11.67
2023-01-03T16:29:16.095Z,11.78
2023-01-03T16:32:21.434Z,11.87
2023-01-03T16:35:26.320Z,11.94
2023-01-03T16:38:31.798Z,12.00
2023-01-03T16:41:36.332Z,12.06
2023-01-03T16:44:41.673Z,12.09
2023-01-03T16:47:46.388Z,12.09
2023-01-03T16:50:52.949Z,12.10
2023-01-03T16:53:58.172Z,12.13
2023-01-03T16:57:03.015Z,12.15
2023-01-03T17:00:15.127Z,12.18
2023-01-03T17:03:19.812Z,12.19
2023-01-03T17:06:33.509Z,12.20
2023-01-03T17:09:41.811Z,12.22
2023-01-03T17:12:46.360Z,12.23
2023-01-03T17:15:51.067Z,12.23
2023-01-03T17:18:55.966Z,12.25
2023-01-03T17:22:00.525Z,12.26
2023-01-03T17:25:05.391Z,12.24
2023-01-03T17:28:11.681Z,12.20
2023-01-03T17:31:17.683Z,12.17
2023-01-03T17:34:24.468Z,12.17
2023-01-03T17:37:29.042Z,12.18
2023-01-03T17:40:34.626Z,12.18
2023-01-03T17:43:39.240Z,12.18
2023-01-03T17:47:01.423Z,12.18
2023-01-03T17:50:06.312Z,12.18
2023-01-03T17:53:11.798Z,12.19
2023-01-03T17:56:17.928Z,12.19
2023-01-03T17:59:22.447Z,12.19
2023-01-03T18:02:27.389Z,12.19
2023-01-03T18:05:32.510Z,12.18
2023-01-03T18:08:37.107Z,12.16
2023-01-03T18:11:41.643Z,12.16
2023-01-03T18:14:46.446Z,12.15
2023-01-03T18:17:51.256Z,12.14
2023-01-03T18:20:56.163Z,12.14
2023-01-03T18:24:02.599Z,12.14
2023-01-03T18:27:07.202Z,12.12
2023-01-03T18:30:14.510Z,12.08
2023-01-03T18:33:19.018Z,12.05
2023-01-03T18:36:28.000Z,12.02
2023-01-03T18:39:32.929Z,11.99
2023-01-03T18:42:54.719Z,11.97
2023-01-03T18:45:59.372Z,11.95
2023-01-03T18:49:04.075Z,11.92
2023-01-03T18:52:14.423Z,11.89
2023-01-03T18:55:21.297Z,11.87
2023-01-03T18:58:31.765Z,11.84
2023-01-03T19:01:36.458Z,11.82
2023-01-03T19:04:42.933Z,11.78
2023-01-03T19:07:52.905Z,11.71
2023-01-03T19:10:58.780Z,11.63
2023-01-03T19:14:04.223Z,11.55
2023-01-03T19:17:12.418Z,11.48
2023-01-03T19:20:19.540Z,11.43
2023-01-03T19:23:28.219Z,11.37
2023-01-03T19:26:34.787Z,11.32
2023-01-03T19:29:39.712Z,11.25
2023-01-03T19:32:45.049Z,11.19
2023-01-03T19:35:49.826Z,11.14
2023-01-03T19:38:54.425Z,11.10
2023-01-03T19:42:17.856Z,11.07
2023-01-03T19:45:27.623Z,11.02
2023-01-03T19:48:32.217Z,10.97
2023-01-03T19:51:38.443Z,10.93
2023-01-03T19:54:43.092Z,10.89
2023-01-03T19:57:49.090Z,10.85
2023-01-03T20:00:54.370Z,10.81
2023-01-03T20:03:59.406Z,10.79
2023-01-03T20:07:04.097Z,10.75
2023-01-03T20:10:10.596Z,10.70
2023-01-03T20:13:19.054Z,10.65
2023-01-03T20:16:23.981Z,10.61
2023-01-03T20:19:30.794Z,10.56
2023-01-03T20:23:03.786Z,10.51
2023-01-03T20:25:59.877Z,10.46
2023-01-03T20:29:05.505Z,10.43
2023-01-03T20:32:10.129Z,10.40
2023-01-03T20:36:07.089Z,10.35
2023-01-03T20:38:44.840Z,10.30
2023-01-03T20:41:49.343Z,10.24
2023-01-03T20:44:53.879Z,10.21
2023-01-03T20:47:58.750Z,10.16
2023-01-03T20:51:03.214Z,10.12
2023-01-03T20:54:07.957Z,10.09
2023-01-03T20:57:16.354Z,10.06
2023-01-03T21:00:23.106Z,10.04
2023-01-03T21:03:27.730Z,10.02
2023-01-03T21:06:34.489Z,10.02
2023-01-03T21:09:38.967Z,10.01
2023-01-03T21:12:43.626Z,10.01
2023-01-03T21:15:48.672Z,10.00
2023-01-03T21:18:53.301Z,9.99
2023-01-03T21:21:59.378Z,9.99
2023-01-03T21:25:03.890Z,9.96
2023-01-03T21:28:08.407Z,9.93
2023-01-03T21:31:17.995Z,9.91
2023-01-03T21:34:22.681Z,9.92
2023-01-03T21:37:27.227Z,9.93
2023-01-03T21:40:32.611Z,9.94
2023-01-03T21:43:37.198Z,9.96
2023-01-03T21:46:43.297Z,9.96
2023-01-03T21:49:47.790Z,9.98
2023-01-03T21:52:52.314Z,9.98
2023-01-03T21:55:56.862Z,9.99
2023-01-03T21:59:01.398Z,9.98
2023-01-03T22:02:31.954Z,9.97
2023-01-03T22:05:36.615Z,9.97
2023-01-03T22:08:41.234Z,9.95
2023-01-03T22:11:45.796Z,9.94
2023-01-03T22:14:50.393Z,9.92
2023-01-03T22:17:55.391Z,9.90
2023-01-03T22:21:02.440Z,9.87
2023-01-03T22:24:07.702Z,9.86
2023-01-03T22:27:12.277Z,9.82
2023-01-03T22:30:17.408Z,9.79
2023-01-03T22:33:21.935Z,9.74
2023-01-03T22:36:26.489Z,9.72
2023-01-03T22:39:31.034Z,9.69
2023-01-03T22:42:35.723Z,9.67
2023-01-03T22:45:41.196Z,9.66
2023-01-03T22:48:46.111Z,9.65
2023-01-03T22:51:50.616Z,9.64
2023-01-03T22:54:55.065Z,9.63
2023-01-03T22:57:59.614Z,9.62
2023-01-03T23:01:08.219Z,9.62
2023-01-03T23:04:13.064Z,9.60
2023-01-03T23:07:17.788Z,9.58
2023-01-03T23:10:22.258Z,9.55
2023-01-03T23:13:26.954Z,9.51
2023-01-03T23:16:32.444Z,9.48
2023-01-03T23:19:37.195Z,9.47
2023-01-03T23:22:43.893Z,9.47
2023-01-03T23:25:48.396Z,9.45
2023-01-03T23:28:54.909Z,9.43
2023-01-03T23:31:59.517Z,9.42
2023-01-03T23:35:04.108Z,9.40
2023-01-03T23:38:08.631Z,9.37
2023-01-03T23:41:13.289Z,9.35
2023-01-03T23:44:18.804Z,9.32
2023-01-03T23:47:23.452Z,9.30
2023-01-03T23:50:27.998Z,9.28
2023-01-03T23:53:32.497Z,9.27
2023-01-03T23:56:37.036Z,9.26
2023-01-03T23:59:42.397Z,9.22
